Dallas, Texas
Traffic Map
Current Weather Conditions
Dallas, Texas
Few Clouds
Few Clouds
16°
Feels Like: 16°
Wind Chill: 16° Ceiling: Unl
Heat Index: 16° Visibility: 10mi
Dew Point: -1° Wind: 12mph
Humidity: 33% Direction: 340° (NNW)
Pressure: 30.17in Gusts: 0mph
Raw Report DataKDAL 261753Z 34010KT 10SM FEW250 16/M01 A3017 RMK AO2 SLP213 T01561006 10156 20067 51018
Traffic Incident Summary
Active as of:
Severity:
Category:
InformationThere was an issue retrieving the traffic information for this location. Please try a different location or try again shortly.
Advertisements
Track Severe Weather on mobile